Upton, Wyoming
Current Conditions -  °F | °C
As of 7:35 AM on Thursday 30 Oct 2014 (Local Time) from KECS Reporting Station
Clear Clear  
Wind Chill: 25°   Ceiling: Unl
Heat Index: 34°   Visibility: 10mi
Dew Point: 28°   Wind: 13mph
Humidity: 81%   Direction: 360°N
Pressure: 30.29"   Gusts: NA
Location:  44.1°N, 104.63°W
Report Text: KECS 301335Z AUTO 36011KT 10SM CLR 01/M02 A3029 RMK AO2
Loading
Personal Weather Stations






























Interactive Weather Map
Tropical Storm Tracking
New forecast layout! Learn more

10-Day Weather Forecast

Advertisements
Track Severe Weather on mobile